Henry, Illinois
Current Conditions -  °F | °C
As of 8:15 AM on Thursday 29 Jan 2015 (Local Time) from KC75 Reporting Station
Haze Haze  
Wind Chill: 24°   Ceiling: 1600
Heat Index: 34°   Visibility: 4mi
Dew Point: 30°   Wind: 15mph
Humidity: 87%   Direction: 310°NW
Pressure: 29.91"   Gusts: 25mph
Location:  41.11°N, 89.36°W
Report Text: KC75 291415Z AUTO 31013G22KT 4SM BR OVC016 01/M01 A2991 RMK AO2 T00101010
Loading
Personal Weather Stations






























Interactive Weather Map New forecast layout! Learn more

10-Day Weather Forecast

Advertisements
Track Severe Weather on mobile